This is the latest recevied weather packets stored in our database for station/object EA1CUE-WX. If no packets are shown the sender has not sent any weather packets the latest 1 day(s).
| Time | Temp. | Humidity | Pressure | Rain* | Wind** | Luminosity | Snow |
|---|---|---|---|---|---|---|---|
| 1778003626 | 9.44° C | 1% | 1014.6 hPa | 0 mm | 0 m/s | - | - |
| 1778003326 | 9.44° C | 1% | 1014.6 hPa | 0 mm | 0 m/s | - | - |
| 1778003026 | 9.44° C | 1% | 1014.5 hPa | 0 mm | 0 m/s | - | - |
| 1778002726 | 8.89° C | 1% | 1014.5 hPa | 0 mm | 0.45 m/s, 279° | - | - |
| 1778002426 | 8.89° C | 1% | 1014.6 hPa | 0 mm | 0.45 m/s, 259° | - | - |
| 1778002126 | 8.89° C | 1% | 1014.7 hPa | 0 mm | 0 m/s | - | - |
| 1778001826 | 8.89° C | 1% | 1014.6 hPa | 0.25 mm | 0.89 m/s, 307° | - | - |
| 1778001526 | 8.89° C | 1% | 1014.7 hPa | 0.51 mm | 0 m/s | - | - |
| 1778001226 | 8.33° C | 1% | 1014.5 hPa | 1.02 mm | 0 m/s | - | - |
| 1778000926 | 8.33° C | 1% | 1014.6 hPa | 1.02 mm | 0 m/s | - | - |
| 1778000626 | 7.78° C | 1% | 1014.7 hPa | 1.02 mm | 0 m/s | - | - |
| 1778000326 | 7.78° C | 1% | 1014.7 hPa | 1.02 mm | 0.89 m/s, 297° | - | - |
| 1778000026 | 7.22° C | 1% | 1014.7 hPa | 1.02 mm | 0.45 m/s, 283° | - | - |
| 1777999726 | 7.22° C | 1% | 1014.6 hPa | 1.02 mm | 0.45 m/s, 258° | - | - |
| 1777999426 | 7.22° C | 1% | 1014.7 hPa | 1.02 mm | 0.89 m/s, 250° | - | - |
| 1777999126 | 7.22° C | 1% | 1014.8 hPa | 1.02 mm | 0.89 m/s, 273° | - | - |
| 1777998826 | 7.78° C | 1% | 1014.7 hPa | 1.02 mm | 0 m/s | - | - |
| 1777998526 | 7.78° C | 1% | 1014.7 hPa | 0.76 mm | 0 m/s | - | - |
| 1777998226 | 7.78° C | 1% | 1014.7 hPa | 0.76 mm | 0.45 m/s, 290° | - | - |
| 1777997926 | 8.89° C | 11% | 1014.6 hPa | 0.51 mm | 0.45 m/s, 316° | - | - |
| 1777997626 | 9.44° C | 26% | 1014.4 hPa | 0 mm | 0 m/s | - | - |
| 1777997326 | 10.56° C | 23% | 1014.2 hPa | 0 mm | 0.45 m/s, 37° | - | - |
| 1777997026 | 10.56° C | 25% | 1014.1 hPa | 0 mm | 0 m/s | - | - |
| 1777996726 | 10.56° C | 17% | 1014.1 hPa | 0 mm | 0 m/s | - | - |
| 1777996426 | 11.11° C | 15% | 1014 hPa | 0 mm | 0.45 m/s, 276° | - | - |
* Rain latest hour (hover to see other rain measurements)
** Current wind speed in m/s (hover to see current wind gust speed)